Time;durP1;ratioP1;P1;durP2;ratioP2;P2;SDS_P1;SDS_P2;PMS_P1;PMS_P2;Temp;Humidity;BMP_temperature;BMP_pressure;BME280_temperature;BME280_humidity;BME280_pressure;Samples;Min_cycle;Max_cycle;Signal;HPM_P1;HPM_P2
2022/06/04 00:01:48;;;;;;;1.40;1.10;;;16.90;94.90;;;;;;5082284;28;20028;-76
2022/06/04 00:04:14;;;;;;;1.83;1.08;;;16.90;95.50;;;;;;5088341;28;20027;-75
2022/06/04 00:06:42;;;;;;;5.20;1.10;;;16.90;95.60;;;;;;5081577;28;20028;-76
2022/06/04 00:09:09;;;;;;;1.42;1.23;;;16.90;95.40;;;;;;5092183;28;20028;-76
2022/06/04 00:17:24;;;;;;;1.63;1.27;;;17.00;95.30;;;;;;5023310;28;20037;-75
2022/06/04 00:19:50;;;;;;;1.88;1.10;;;17.00;95.00;;;;;;5070630;28;20032;-76
2022/06/04 00:22:16;;;;;;;1.13;1.00;;;17.00;95.00;;;;;;5085928;28;20024;-76
2022/06/04 00:24:43;;;;;;;1.45;1.05;;;17.10;95.60;;;;;;5095803;28;20077;-76
2022/06/04 00:27:19;;;;;;;1.38;0.98;;;17.00;95.00;;;;;;5085828;28;20526;-75
2022/06/04 00:29:45;;;;;;;1.42;1.15;;;17.10;95.00;;;;;;5080325;28;20032;-76
2022/06/04 00:32:11;;;;;;;1.45;0.98;;;17.10;94.90;;;;;;5084506;28;20111;-76
2022/06/04 00:34:37;;;;;;;1.55;0.88;;;17.10;95.20;;;;;;5082833;28;20048;-76
2022/06/04 00:37:02;;;;;;;3.33;0.90;;;17.10;94.80;;;;;;5078834;28;20032;-75
2022/06/04 00:39:28;;;;;;;1.92;1.25;;;17.10;94.70;;;;;;5073920;28;20024;-76
2022/06/04 00:42:13;;;;;;;1.30;1.20;;;17.10;94.80;;;;;;5082577;28;20063;-76
2022/06/04 00:45:16;;;;;;;1.13;0.98;;;17.00;94.50;;;;;;5078276;28;20508;-76
2022/06/04 00:47:42;;;;;;;1.42;1.13;;;17.10;95.40;;;;;;5083026;28;20386;-76
2022/06/04 00:50:09;;;;;;;1.08;0.90;;;17.10;94.80;;;;;;5085793;28;20122;-76
2022/06/04 00:52:35;;;;;;;0.95;0.70;;;17.10;94.70;;;;;;5086355;28;20031;-76
2022/06/04 00:55:04;;;;;;;1.20;1.08;;;17.10;95.00;;;;;;5085017;28;20103;-76
2022/06/04 00:58:10;;;;;;;2.47;0.98;;;16.90;95.20;;;;;;5082186;28;20027;-76
2022/06/04 01:00:41;;;;;;;1.05;0.98;;;17.00;95.50;;;;;;5090886;28;20043;-76
2022/06/04 01:03:13;;;;;;;1.20;1.10;;;17.00;95.00;;;;;;5083597;28;20504;-76
2022/06/04 01:06:13;;;;;;;1.55;1.25;;;17.10;94.90;;;;;;5084468;28;20027;-77
2022/06/04 01:08:51;;;;;;;3.20;1.00;;;17.10;94.90;;;;;;5083595;28;20146;-76
2022/06/04 01:11:31;;;;;;;1.15;0.85;;;17.00;95.00;;;;;;5082947;28;20107;-76
2022/06/04 01:13:57;;;;;;;1.17;0.90;;;17.00;94.60;;;;;;5078616;28;20514;-76
2022/06/04 01:16:47;;;;;;;1.25;1.00;;;17.00;94.90;;;;;;5086563;28;20067;-76
2022/06/04 01:19:21;;;;;;;1.55;1.05;;;16.90;95.00;;;;;;5085182;28;20063;-77
2022/06/04 01:22:16;;;;;;;1.08;0.95;;;16.90;95.20;;;;;;5069796;28;20036;-76
2022/06/04 01:25:07;;;;;;;1.90;0.90;;;17.00;95.30;;;;;;5083380;28;20024;-76
2022/06/04 01:27:45;;;;;;;1.30;1.07;;;16.90;95.60;;;;;;5089847;28;20118;-76
2022/06/04 01:30:18;;;;;;;2.67;1.00;;;17.00;95.10;;;;;;5087597;28;20036;-77
2022/06/04 01:32:49;;;;;;;1.70;1.40;;;16.90;95.40;;;;;;5086910;28;20034;-76
2022/06/04 01:35:40;;;;;;;1.95;1.20;;;16.90;95.80;;;;;;5087407;28;20027;-76
2022/06/04 01:38:38;;;;;;;0.80;0.80;;;16.80;95.20;;;;;;5082380;28;20036;-76
2022/06/04 01:41:13;;;;;;;1.92;1.17;;;16.70;95.10;;;;;;5082482;28;20048;-76
2022/06/04 01:43:54;;;;;;;0.68;0.68;;;16.60;95.80;;;;;;5089065;28;20468;-76
2022/06/04 01:46:32;;;;;;;1.10;1.00;;;16.70;95.80;;;;;;5079870;28;20028;-76
2022/06/04 01:49:07;;;;;;;1.45;0.98;;;16.70;95.50;;;;;;5090219;28;20062;-76
2022/06/04 01:51:34;;;;;;;0.75;0.75;;;16.80;95.30;;;;;;5088019;28;20994;-76
2022/06/04 01:54:06;;;;;;;0.93;0.75;;;16.80;95.00;;;;;;5081514;28;20028;-75
2022/06/04 01:56:37;;;;;;;1.38;1.27;;;16.70;95.40;;;;;;5087497;28;20086;-76
2022/06/04 01:59:26;;;;;;;1.08;0.98;;;16.70;94.90;;;;;;5090826;28;20031;-76
2022/06/04 02:01:56;;;;;;;3.30;0.90;;;16.80;94.80;;;;;;5090266;28;20043;-76
2022/06/04 02:04:27;;;;;;;3.63;1.75;;;16.80;94.60;;;;;;5089522;28;20035;-76
2022/06/04 02:09:52;;;;;;;1.15;1.05;;;16.80;94.10;;;;;;5084863;28;20188;-76
2022/06/04 02:12:19;;;;;;;1.75;0.90;;;16.70;94.20;;;;;;5086975;28;20287;-76
2022/06/04 02:14:45;;;;;;;1.23;0.85;;;16.70;94.40;;;;;;5080435;28;20036;-76
2022/06/04 02:17:14;;;;;;;0.80;0.80;;;16.70;94.40;;;;;;5081669;28;20028;-76
2022/06/04 02:19:44;;;;;;;1.00;0.90;;;16.70;94.20;;;;;;5082898;28;20021;-76
2022/06/04 02:22:10;;;;;;;1.42;1.27;;;16.70;93.90;;;;;;5079257;28;20059;-76
2022/06/04 02:24:36;;;;;;;0.77;0.75;;;16.70;94.40;;;;;;5078000;28;20047;-75
2022/06/04 02:27:04;;;;;;;0.73;0.73;;;16.70;93.60;;;;;;5086643;28;20572;-76
2022/06/04 02:29:30;;;;;;;1.83;0.70;;;16.70;93.60;;;;;;5075349;28;20378;-76
2022/06/04 02:32:27;;;;;;;1.48;1.08;;;16.70;94.00;;;;;;5084906;28;20029;-76
2022/06/04 02:34:56;;;;;;;0.77;0.77;;;16.70;94.20;;;;;;5083254;28;20477;-75
2022/06/04 02:37:51;;;;;;;1.40;0.70;;;16.60;94.00;;;;;;5083826;28;20052;-76
2022/06/04 02:40:22;;;;;;;0.90;0.80;;;16.60;93.70;;;;;;5055710;28;20040;-76
2022/06/04 02:43:17;;;;;;;;;;;16.60;93.70;;;;;;5090437;28;20111;-76
2022/06/04 02:45:51;;;;;;;1.30;1.10;;;16.50;94.00;;;;;;5075648;28;19908;-76
2022/06/04 02:48:41;;;;;;;1.38;1.00;;;16.40;94.80;;;;;;5086434;28;20046;-76
2022/06/04 02:51:23;;;;;;;1.75;1.20;;;16.40;94.50;;;;;;5076682;28;20034;-75
2022/06/04 02:53:49;;;;;;;1.00;0.80;;;16.40;93.40;;;;;;5083918;28;20024;-75
2022/06/04 02:56:20;;;;;;;1.20;1.10;;;16.30;94.20;;;;;;5087939;28;20113;-76
2022/06/04 02:58:49;;;;;;;0.95;0.90;;;16.40;94.50;;;;;;5086648;28;20027;-76
2022/06/04 03:01:16;;;;;;;1.08;0.98;;;16.30;94.00;;;;;;5086112;28;20024;-76
2022/06/04 03:03:42;;;;;;;2.00;0.93;;;16.40;93.80;;;;;;5084142;28;20030;-76
2022/06/04 03:06:21;;;;;;;1.00;0.90;;;16.30;93.80;;;;;;5080187;28;20020;-76
2022/06/04 03:08:47;;;;;;;1.73;1.00;;;16.30;93.40;;;;;;5085574;28;20028;-76
2022/06/04 03:11:12;;;;;;;1.10;0.85;;;16.30;93.30;;;;;;5087860;28;20035;-76
2022/06/04 03:13:38;;;;;;;2.67;0.93;;;16.30;93.30;;;;;;5086263;28;20100;-76
2022/06/04 03:16:04;;;;;;;1.10;0.90;;;16.30;93.50;;;;;;5086118;28;20016;-76
2022/06/04 03:18:29;;;;;;;0.70;0.70;;;16.10;93.40;;;;;;5084381;28;20035;-76
2022/06/04 03:20:54;;;;;;;1.75;1.33;;;16.20;93.90;;;;;;5089192;28;20114;-76
2022/06/04 03:23:20;;;;;;;1.10;0.73;;;16.20;93.50;;;;;;5087515;28;20028;-76
2022/06/04 03:25:45;;;;;;;1.10;1.00;;;16.20;93.80;;;;;;5073144;28;20478;-76
2022/06/04 03:28:11;;;;;;;1.10;0.98;;;16.20;92.90;;;;;;5076914;28;20028;-76
2022/06/04 03:30:38;;;;;;;1.40;1.00;;;16.20;93.20;;;;;;5083198;28;20059;-76
2022/06/04 03:33:04;;;;;;;1.05;0.88;;;16.20;92.50;;;;;;5078649;28;20099;-76
2022/06/04 03:35:30;;;;;;;0.70;0.70;;;16.20;92.50;;;;;;5085846;28;20497;-76
2022/06/04 03:37:56;;;;;;;1.30;1.00;;;16.20;92.60;;;;;;5078462;28;20032;-76
2022/06/04 03:40:21;;;;;;;0.88;0.70;;;16.20;92.50;;;;;;5077492;28;20058;-77
2022/06/04 03:42:47;;;;;;;1.25;1.08;;;16.10;93.00;;;;;;5084490;28;20107;-76
2022/06/04 03:45:13;;;;;;;1.30;1.17;;;16.10;93.10;;;;;;5083798;28;20379;-77
2022/06/04 03:47:40;;;;;;;4.93;1.00;;;16.10;93.20;;;;;;5086275;28;20028;-77
2022/06/04 03:50:09;;;;;;;1.77;0.90;;;16.10;92.80;;;;;;5077009;28;20028;-77
2022/06/04 03:52:35;;;;;;;1.95;0.90;;;16.00;92.70;;;;;;5082387;28;20024;-77
2022/06/04 03:55:01;;;;;;;1.15;1.05;;;16.10;92.70;;;;;;5085160;28;20028;-77
2022/06/04 03:57:37;;;;;;;1.13;0.70;;;16.10;93.00;;;;;;5085905;28;20561;-77
2022/06/04 04:00:12;;;;;;;1.20;0.95;;;16.10;92.80;;;;;;5077205;28;20378;-76
2022/06/04 04:02:37;;;;;;;1.08;0.85;;;16.10;93.40;;;;;;5085588;28;20017;-76
2022/06/04 04:05:08;;;;;;;1.23;0.88;;;16.20;94.40;;;;;;5084403;28;20075;-77
2022/06/04 04:07:34;;;;;;;0.70;0.70;;;16.10;93.80;;;;;;5088103;28;20088;-77
2022/06/04 04:10:00;;;;;;;1.50;0.88;;;16.20;92.30;;;;;;5089360;28;20424;-77
2022/06/04 04:12:27;;;;;;;1.13;0.90;;;16.20;93.10;;;;;;5088631;28;20028;-78
2022/06/04 04:14:52;;;;;;;2.92;0.90;;;16.30;92.50;;;;;;5073248;28;20024;-77
2022/06/04 04:17:18;;;;;;;2.10;0.90;;;16.30;91.90;;;;;;5087972;28;20478;-77
2022/06/04 04:19:43;;;;;;;1.10;0.95;;;16.30;92.90;;;;;;5083484;28;20052;-77
2022/06/04 04:22:08;;;;;;;0.85;0.77;;;16.50;91.80;;;;;;5080636;28;20559;-77
2022/06/04 04:24:34;;;;;;;1.25;0.88;;;16.60;92.60;;;;;;5083999;28;20024;-77
2022/06/04 04:26:59;;;;;;;0.80;0.80;;;16.40;92.90;;;;;;5087531;28;20024;-77
2022/06/04 04:29:25;;;;;;;0.75;0.75;;;16.40;92.30;;;;;;5072830;28;20047;-77
2022/06/04 04:31:50;;;;;;;0.77;0.77;;;16.20;92.30;;;;;;5076803;28;20123;-77
2022/06/04 04:34:16;;;;;;;1.15;0.90;;;16.40;92.30;;;;;;5083455;28;20029;-77
2022/06/04 04:36:41;;;;;;;1.05;0.70;;;16.50;91.90;;;;;;5084527;28;20028;-77
2022/06/04 04:39:07;;;;;;;2.60;0.80;;;16.50;91.80;;;;;;5077078;28;20028;-76
2022/06/04 04:41:32;;;;;;;7.05;1.90;;;16.50;91.10;;;;;;5075120;28;20040;-77
2022/06/04 04:43:58;;;;;;;1.23;0.82;;;16.50;91.80;;;;;;5081311;28;20016;-75
2022/06/04 04:46:23;;;;;;;2.63;0.88;;;16.60;91.10;;;;;;5075191;28;20147;-76
2022/06/04 04:48:49;;;;;;;0.90;0.90;;;16.50;91.10;;;;;;5073922;28;20024;-76
2022/06/04 04:51:24;;;;;;;0.73;0.70;;;16.50;90.70;;;;;;5085259;28;20477;-75
2022/06/04 04:53:51;;;;;;;0.85;0.77;;;16.50;90.40;;;;;;5080208;28;20024;-77
2022/06/04 04:56:19;;;;;;;1.73;1.08;;;16.50;90.50;;;;;;5086950;28;20379;-76
2022/06/04 04:58:45;;;;;;;4.10;0.85;;;16.60;90.80;;;;;;5082403;28;20028;-76
2022/06/04 05:01:20;;;;;;;0.90;0.82;;;16.50;90.40;;;;;;5089098;28;20035;-77
2022/06/04 05:03:45;;;;;;;0.75;0.73;;;16.50;90.50;;;;;;5088198;28;20450;-76
2022/06/04 05:06:13;;;;;;;0.65;0.65;;;16.60;90.20;;;;;;5085326;28;20035;-77
2022/06/04 05:08:39;;;;;;;4.07;0.82;;;16.60;90.00;;;;;;5080010;28;20050;-76
2022/06/04 05:11:10;;;;;;;0.82;0.80;;;16.60;90.50;;;;;;5088023;28;20470;-76
2022/06/04 05:13:39;;;;;;;0.77;0.77;;;16.70;89.50;;;;;;5085025;28;20024;-76
2022/06/04 05:16:05;;;;;;;1.08;0.80;;;16.70;89.00;;;;;;5085383;28;20024;-76
2022/06/04 05:18:31;;;;;;;1.08;0.90;;;16.70;88.80;;;;;;5090196;28;20239;-76
2022/06/04 05:21:25;;;;;;;1.15;1.05;;;16.60;89.90;;;;;;5084106;28;20108;-76
2022/06/04 05:23:53;;;;;;;2.05;0.98;;;16.60;90.00;;;;;;5082967;28;20028;-76
2022/06/04 05:26:20;;;;;;;1.65;1.05;;;16.50;90.40;;;;;;5084274;28;20024;-77
2022/06/04 05:28:46;;;;;;;1.80;0.98;;;16.60;90.10;;;;;;5089119;28;20028;-76
2022/06/04 05:31:12;;;;;;;0.82;0.80;;;16.60;90.00;;;;;;5087370;28;20042;-80
2022/06/04 05:33:38;;;;;;;0.95;0.85;;;16.50;88.20;;;;;;5083901;28;20735;-77
2022/06/04 05:36:04;;;;;;;1.08;0.98;;;16.60;89.60;;;;;;5087965;28;20119;-78
2022/06/04 05:38:34;;;;;;;2.25;1.13;;;16.70;88.70;;;;;;5090759;28;20107;-79
2022/06/04 05:41:01;;;;;;;1.20;1.00;;;16.70;89.00;;;;;;5077280;28;20043;-77
2022/06/04 05:43:27;;;;;;;0.70;0.68;;;16.70;87.10;;;;;;5084901;28;20653;-78
2022/06/04 05:45:57;;;;;;;2.03;1.10;;;16.70;88.70;;;;;;5082418;28;20031;-79
2022/06/04 05:48:23;;;;;;;1.15;0.88;;;16.80;87.30;;;;;;5086760;28;20035;-77
2022/06/04 05:50:49;;;;;;;1.20;1.10;;;16.70;88.00;;;;;;5090923;28;20021;-77
2022/06/04 05:53:15;;;;;;;1.00;0.80;;;16.90;86.50;;;;;;5076361;28;20120;-82
2022/06/04 05:55:40;;;;;;;1.20;1.13;;;17.00;86.40;;;;;;5086159;28;20123;-79
2022/06/04 05:58:06;;;;;;;0.88;0.70;;;17.10;85.20;;;;;;5084147;28;20032;-78
2022/06/04 06:00:31;;;;;;;1.10;0.88;;;17.20;85.90;;;;;;5083445;28;20035;-77
2022/06/04 06:02:57;;;;;;;1.02;0.80;;;17.10;85.70;;;;;;5089943;28;20179;-78
2022/06/04 06:05:22;;;;;;;1.17;0.95;;;17.20;84.80;;;;;;5087022;28;20047;-78
2022/06/04 06:07:48;;;;;;;0.88;0.80;;;17.20;84.60;;;;;;5083527;28;20561;-78
2022/06/04 06:10:16;;;;;;;2.17;0.90;;;17.40;83.20;;;;;;5091546;28;20110;-78
2022/06/04 06:12:42;;;;;;;1.27;0.80;;;17.60;83.20;;;;;;5085687;28;20031;-77
2022/06/04 06:15:08;;;;;;;1.67;1.30;;;17.80;82.40;;;;;;5086630;28;20028;-76
2022/06/04 06:17:33;;;;;;;1.20;1.10;;;17.80;80.80;;;;;;5086372;28;20111;-79
2022/06/04 06:19:59;;;;;;;1.88;0.80;;;17.80;81.10;;;;;;5077908;28;20114;-79
2022/06/04 06:22:24;;;;;;;1.42;1.20;;;17.80;78.60;;;;;;5084937;28;20466;-81
2022/06/04 06:24:50;;;;;;;0.80;0.80;;;17.90;79.00;;;;;;5090868;28;20419;-81
2022/06/04 06:27:15;;;;;;;1.00;0.88;;;18.00;77.30;;;;;;5079696;28;20044;-80
2022/06/04 06:29:41;;;;;;;0.95;0.80;;;17.70;76.90;;;;;;5086799;28;20035;-87
2022/06/04 06:32:07;;;;;;;0.63;0.63;;;17.70;78.00;;;;;;5083414;28;20035;-82
2022/06/04 06:34:32;;;;;;;0.88;0.82;;;18.00;79.20;;;;;;5085281;28;20494;-88
2022/06/04 06:36:58;;;;;;;0.93;0.90;;;18.20;76.00;;;;;;5086071;28;20070;-83
2022/06/04 06:39:23;;;;;;;0.75;0.75;;;18.20;74.10;;;;;;5086319;28;20111;-87
2022/06/04 06:41:49;;;;;;;1.05;0.90;;;18.40;76.30;;;;;;5087008;28;20024;-81
2022/06/04 06:44:15;;;;;;;2.90;1.70;;;18.40;74.40;;;;;;5088318;28;20093;-81
2022/06/04 06:46:46;;;;;;;1.27;0.85;;;18.40;73.60;;;;;;5084164;28;20039;-79
2022/06/04 06:49:22;;;;;;;1.08;0.52;;;18.60;73.30;;;;;;5082118;28;20090;-79
2022/06/04 06:51:54;;;;;;;0.85;0.73;;;18.70;71.80;;;;;;5085375;28;20039;-83
2022/06/04 06:54:21;;;;;;;3.50;1.40;;;18.80;72.30;;;;;;5076549;28;20038;-83
2022/06/04 06:56:48;;;;;;;3.58;0.65;;;18.80;73.20;;;;;;5089712;28;20020;-84
2022/06/04 06:59:14;;;;;;;2.08;0.98;;;18.90;72.60;;;;;;5086887;28;20032;-80
2022/06/04 07:01:42;;;;;;;1.15;0.77;;;19.00;70.10;;;;;;5079544;28;20028;-80
2022/06/04 07:04:08;;;;;;;0.88;0.60;;;19.10;70.90;;;;;;5082496;28;20024;-83
2022/06/04 07:06:37;;;;;;;0.70;0.68;;;19.00;71.50;;;;;;5082105;28;20092;-80
2022/06/04 07:09:06;;;;;;;1.08;0.98;;;19.20;72.00;;;;;;5081638;28;20522;-82
2022/06/04 07:11:32;;;;;;;0.77;0.75;;;19.20;70.70;;;;;;5085996;28;20036;-80
2022/06/04 07:13:57;;;;;;;3.95;0.80;;;19.40;70.80;;;;;;5086033;28;20027;-82
2022/06/04 07:16:23;;;;;;;0.88;0.77;;;19.50;71.20;;;;;;5086636;28;20024;-83
2022/06/04 07:18:49;;;;;;;1.15;0.90;;;19.50;69.30;;;;;;5084373;28;20024;-82
2022/06/04 07:21:15;;;;;;;0.50;0.50;;;19.60;69.30;;;;;;5084798;28;20028;-81
2022/06/04 07:23:40;;;;;;;0.57;0.52;;;19.50;67.10;;;;;;5084273;28;20028;-80
2022/06/04 07:26:07;;;;;;;2.05;1.02;;;19.40;70.80;;;;;;5082283;28;20486;-80
2022/06/04 07:28:32;;;;;;;1.33;0.80;;;19.40;69.70;;;;;;5086901;28;20028;-80
2022/06/04 07:30:58;;;;;;;3.75;1.23;;;19.50;69.60;;;;;;5084181;28;20031;-80
2022/06/04 07:33:27;;;;;;;0.95;0.90;;;19.50;68.50;;;;;;5089206;28;20101;-80
2022/06/04 07:35:53;;;;;;;0.93;0.80;;;19.50;69.80;;;;;;5079424;28;20039;-80
2022/06/04 07:38:18;;;;;;;0.80;0.80;;;19.50;67.70;;;;;;5089868;28;20406;-79
2022/06/04 07:40:46;;;;;;;0.70;0.70;;;19.60;68.00;;;;;;5086985;28;20040;-81
2022/06/04 07:43:12;;;;;;;1.95;0.70;;;19.80;69.30;;;;;;5086149;28;20020;-78
2022/06/04 07:45:39;;;;;;;3.00;1.00;;;20.00;67.10;;;;;;5076519;28;20099;-78
2022/06/04 07:48:05;;;;;;;0.45;0.45;;;20.20;67.10;;;;;;5073101;28;20028;-80
2022/06/04 07:50:32;;;;;;;8.82;1.10;;;20.30;65.90;;;;;;5072462;28;20024;-79
2022/06/04 07:52:58;;;;;;;0.77;0.77;;;20.30;67.70;;;;;;5090543;28;20074;-79
2022/06/04 07:55:24;;;;;;;0.57;0.57;;;20.30;65.70;;;;;;5080902;28;20024;-78
2022/06/04 07:57:50;;;;;;;0.95;0.70;;;20.20;65.70;;;;;;5083937;28;20104;-79
2022/06/04 08:00:16;;;;;;;0.70;0.70;;;20.20;65.60;;;;;;5078787;28;20574;-80
2022/06/04 08:02:45;;;;;;;1.42;0.70;;;20.20;65.10;;;;;;5087709;28;20028;-78
2022/06/04 08:05:11;;;;;;;0.63;0.63;;;20.10;64.10;;;;;;5080031;28;20243;-78
2022/06/04 08:07:37;;;;;;;0.73;0.63;;;20.20;63.40;;;;;;5072952;28;20107;-79
2022/06/04 08:10:05;;;;;;;0.63;0.50;;;20.20;63.90;;;;;;5090591;28;20019;-80
2022/06/04 08:12:32;;;;;;;1.05;0.50;;;20.20;65.40;;;;;;5074294;28;20029;-78
2022/06/04 08:14:58;;;;;;;1.00;0.88;;;20.20;62.60;;;;;;5084131;28;20039;-78
2022/06/04 08:17:24;;;;;;;0.65;0.55;;;20.10;64.20;;;;;;5085208;28;20566;-78
2022/06/04 08:19:49;;;;;;;3.13;1.05;;;20.20;63.60;;;;;;5080634;28;20040;-79
2022/06/04 08:22:14;;;;;;;0.73;0.60;;;20.30;63.40;;;;;;5089243;28;20092;-79
2022/06/04 08:24:40;;;;;;;1.17;0.88;;;20.30;64.90;;;;;;5080863;28;20027;-79
2022/06/04 08:27:06;;;;;;;1.17;0.70;;;20.40;66.10;;;;;;5082120;28;20085;-79
2022/06/04 08:29:34;;;;;;;0.88;0.68;;;20.50;64.60;;;;;;5084214;28;20505;-78
2022/06/04 08:32:02;;;;;;;2.88;1.10;;;20.60;65.90;;;;;;5085107;28;20663;-79
2022/06/04 08:34:28;;;;;;;2.33;1.02;;;20.50;64.60;;;;;;5081922;28;20028;-79
2022/06/04 08:36:53;;;;;;;0.77;0.77;;;20.60;63.80;;;;;;5088891;28;20483;-79
2022/06/04 08:39:19;;;;;;;0.73;0.70;;;20.90;63.80;;;;;;5082524;28;20040;-79
2022/06/04 08:42:08;;;;;;;0.77;0.70;;;20.80;63.80;;;;;;5083506;28;20073;-78
2022/06/04 08:44:40;;;;;;;0.95;0.70;;;20.80;64.80;;;;;;5078212;28;20456;-81
2022/06/04 08:47:31;;;;;;;1.25;1.00;;;20.70;65.40;;;;;;5086663;28;20535;-75
2022/06/04 08:50:08;;;;;;;0.85;0.60;;;20.40;63.80;;;;;;5083547;28;20039;-75
2022/06/04 08:52:47;;;;;;;0.60;0.60;;;20.30;64.70;;;;;;5082152;28;20035;-77
2022/06/04 08:58:16;;;;;;;1.27;1.02;;;20.30;66.80;;;;;;5079493;28;20036;-77
2022/06/04 09:00:56;;;;;;;0.70;0.70;;;20.30;67.00;;;;;;5072520;28;20620;-77
2022/06/04 09:03:46;;;;;;;0.75;0.70;;;20.30;66.40;;;;;;5084382;28;20791;-76
2022/06/04 09:06:46;;;;;;;0.68;0.65;;;20.30;67.20;;;;;;5091256;28;20052;-77
2022/06/04 09:09:20;;;;;;;2.55;0.85;;;20.40;67.50;;;;;;5090976;28;20040;-77
2022/06/04 09:11:56;;;;;;;1.15;0.90;;;20.40;68.40;;;;;;5096713;28;20496;-77
2022/06/04 09:14:30;;;;;;;2.42;1.40;;;20.40;67.60;;;;;;5082459;28;20060;-78
2022/06/04 09:17:19;;;;;;;1.40;1.00;;;20.60;67.50;;;;;;5089326;28;20032;-77
2022/06/04 09:19:54;;;;;;;0.60;0.60;;;20.80;68.60;;;;;;5071568;28;20032;-78
2022/06/04 09:22:24;;;;;;;1.42;1.00;;;21.00;65.70;;;;;;5071742;28;20761;-78
2022/06/04 09:24:50;;;;;;;1.55;0.90;;;21.30;65.40;;;;;;5084570;28;20497;-78
2022/06/04 09:27:43;;;;;;;0.82;0.82;;;21.50;65.20;;;;;;5090930;28;20024;-78
2022/06/04 09:30:29;;;;;;;0.85;0.85;;;21.70;67.70;;;;;;5092081;28;20124;-79
2022/06/04 09:33:05;;;;;;;0.95;0.90;;;21.90;62.50;;;;;;5090592;28;20081;-78
2022/06/04 09:35:35;;;;;;;1.45;0.77;;;21.80;62.40;;;;;;5086907;28;20035;-77
2022/06/04 09:38:02;;;;;;;0.47;0.47;;;21.90;63.20;;;;;;5089584;28;20257;-78
2022/06/04 09:40:33;;;;;;;1.08;0.93;;;22.00;61.90;;;;;;5091918;28;20097;-77
2022/06/04 09:43:14;;;;;;;0.98;0.90;;;22.20;61.80;;;;;;5090982;28;20021;-77
2022/06/04 09:45:41;;;;;;;0.70;0.70;;;22.40;61.40;;;;;;5090044;28;20093;-76
2022/06/04 09:48:19;;;;;;;0.70;0.70;;;22.80;59.50;;;;;;5089729;28;20020;-78
2022/06/04 09:51:10;;;;;;;0.95;0.85;;;23.10;58.50;;;;;;5090960;28;20031;-77
2022/06/04 09:53:46;;;;;;;0.95;0.75;;;23.40;59.80;;;;;;5062126;28;20077;-78
2022/06/04 09:56:33;;;;;;;0.90;0.77;;;23.60;57.10;;;;;;5071648;28;20451;-77
2022/06/04 09:59:20;;;;;;;1.13;0.95;;;23.60;58.00;;;;;;5080009;28;20039;-78
2022/06/04 10:02:00;;;;;;;1.20;1.05;;;23.80;58.30;;;;;;5077367;28;20016;-80
2022/06/04 10:04:47;;;;;;;1.00;0.90;;;23.80;57.80;;;;;;5081028;28;20035;-79
2022/06/04 10:07:33;;;;;;;0.73;0.73;;;23.60;58.20;;;;;;5080374;28;20032;-77
2022/06/04 10:10:07;;;;;;;0.63;0.63;;;23.50;58.70;;;;;;5078477;28;20042;-85
2022/06/04 10:15:41;;;;;;;1.25;0.90;;;23.10;58.90;;;;;;5086285;28;20118;-79
2022/06/04 10:18:31;;;;;;;1.30;0.90;;;22.90;58.50;;;;;;5079973;28;20025;-77
2022/06/04 10:21:01;;;;;;;3.50;0.73;;;23.10;57.70;;;;;;5073932;28;20044;-78
2022/06/04 10:23:28;;;;;;;0.80;0.80;;;23.20;57.10;;;;;;5085514;28;20020;-78
2022/06/04 10:26:37;;;;;;;1.15;1.05;;;23.10;58.30;;;;;;5085563;28;20157;-79
2022/06/04 10:29:14;;;;;;;1.00;0.80;;;23.30;57.00;;;;;;5074709;28;20546;-78
2022/06/04 10:32:01;;;;;;;1.58;1.10;;;23.20;57.20;;;;;;5084016;28;20059;-78
2022/06/04 10:34:42;;;;;;;0.82;0.70;;;23.20;56.50;;;;;;5082218;28;20394;-76
2022/06/04 10:37:26;;;;;;;;;;;22.90;57.70;;;;;;5084707;28;20024;-76
2022/06/04 10:40:00;;;;;;;4.07;1.48;;;22.90;58.70;;;;;;5081727;28;20451;-75
2022/06/04 10:42:46;;;;;;;1.15;1.00;;;22.70;58.10;;;;;;5083227;28;20036;-77
2022/06/04 10:45:29;;;;;;;1.23;1.10;;;23.00;59.00;;;;;;5080532;28;20111;-75
2022/06/04 10:48:15;;;;;;;1.80;1.08;;;23.30;58.00;;;;;;5086741;28;20386;-78
2022/06/04 10:54:03;;;;;;;2.92;1.92;;;23.70;56.90;;;;;;5081961;28;20085;-76
2022/06/04 10:56:37;;;;;;;1.75;1.15;;;24.20;56.70;;;;;;5084630;28;20471;-78
2022/06/04 10:59:18;;;;;;;1.70;1.10;;;24.50;55.80;;;;;;5082729;28;20040;-75
2022/06/04 11:02:11;;;;;;;2.42;1.40;;;24.30;54.70;;;;;;5093381;28;20086;-79
2022/06/04 11:04:52;;;;;;;0.95;0.90;;;24.10;55.80;;;;;;5090699;28;20484;-77
2022/06/04 11:07:48;;;;;;;0.90;0.90;;;24.50;56.60;;;;;;5074723;28;20050;-76
2022/06/04 11:10:16;;;;;;;1.10;1.00;;;25.10;56.90;;;;;;5078402;28;20090;-76
2022/06/04 11:12:49;;;;;;;0.93;0.90;;;25.20;54.30;;;;;;5074019;28;20509;-77
2022/06/04 11:15:22;;;;;;;1.45;1.35;;;25.30;53.70;;;;;;5087499;28;20540;-76
2022/06/04 11:18:12;;;;;;;1.20;1.00;;;25.30;53.50;;;;;;5084183;28;20412;-76
2022/06/04 11:21:04;;;;;;;2.08;1.30;;;25.40;53.70;;;;;;5082251;28;20367;-77
2022/06/04 11:23:44;;;;;;;1.17;1.08;;;25.50;53.50;;;;;;5050861;28;20051;-77
2022/06/04 11:26:42;;;;;;;1.10;0.93;;;25.60;52.40;;;;;;5087523;28;20028;-78
2022/06/04 11:29:11;;;;;;;1.02;0.93;;;25.80;54.10;;;;;;5077547;28;20021;-75
2022/06/04 11:32:06;;;;;;;1.00;0.90;;;26.30;54.50;;;;;;5088074;28;20024;-79
2022/06/04 11:35:03;;;;;;;0.93;0.93;;;25.80;52.50;;;;;;5089533;28;20078;-80
2022/06/04 11:37:54;;;;;;;1.15;0.95;;;25.90;52.90;;;;;;5089176;28;20066;-78
2022/06/04 11:40:19;;;;;;;;;;;26.60;53.90;;;;;;5089008;28;20043;-78
2022/06/04 11:42:54;;;;;;;1.10;1.00;;;27.00;52.20;;;;;;5086252;28;20362;-79
2022/06/04 11:45:36;;;;;;;0.80;0.80;;;26.90;51.30;;;;;;5089508;28;20036;-79
2022/06/04 11:48:20;;;;;;;1.17;1.08;;;26.40;53.00;;;;;;5074929;28;20418;-79
2022/06/04 11:51:11;;;;;;;1.17;1.00;;;26.90;52.30;;;;;;5069377;28;20112;-79
2022/06/04 11:53:55;;;;;;;4.60;0.82;;;26.60;52.30;;;;;;5081598;28;20036;-79
2022/06/04 11:56:21;;;;;;;1.83;1.30;;;27.00;53.10;;;;;;5088863;28;20031;-78
2022/06/04 11:58:59;;;;;;;0.98;0.90;;;27.10;51.50;;;;;;5089478;28;20024;-78
2022/06/04 12:01:32;;;;;;;1.02;1.00;;;27.00;52.30;;;;;;5085889;28;20047;-76
2022/06/04 12:04:33;;;;;;;1.13;1.02;;;27.10;51.80;;;;;;5087103;28;20040;-78
2022/06/04 12:07:08;;;;;;;1.20;0.90;;;27.10;51.60;;;;;;5086546;28;20035;-79
2022/06/04 12:09:44;;;;;;;2.20;1.15;;;27.00;52.00;;;;;;5088833;28;23019;-79
2022/06/04 12:12:33;;;;;;;1.02;0.93;;;26.90;53.00;;;;;;5088196;28;20032;-79
2022/06/04 12:15:22;;;;;;;1.73;1.20;;;27.20;51.90;;;;;;5087724;28;20032;-78
2022/06/04 12:18:00;;;;;;;1.33;1.23;;;27.20;50.70;;;;;;5084722;28;20025;-79
2022/06/04 12:26:30;;;;;;;1.92;1.30;;;26.80;52.10;;;;;;5086674;28;20050;-78
2022/06/04 12:28:57;;;;;;;1.00;0.90;;;26.60;52.30;;;;;;5089481;28;20028;-78
2022/06/04 12:31:36;;;;;;;1.30;1.20;;;26.60;51.50;;;;;;5088638;28;20379;-80
2022/06/04 12:34:04;;;;;;;1.27;1.10;;;26.80;52.50;;;;;;5086055;28;20033;-79
2022/06/04 12:36:34;;;;;;;4.38;1.08;;;26.50;50.90;;;;;;5087443;28;20542;-78
2022/06/04 12:39:19;;;;;;;2.42;1.10;;;26.10;52.60;;;;;;5088605;28;20024;-79
2022/06/04 12:41:49;;;;;;;1.23;1.05;;;26.30;53.80;;;;;;5086587;28;20127;-78
2022/06/04 12:44:20;;;;;;;1.50;1.40;;;26.20;53.70;;;;;;5086170;28;20028;-78
2022/06/04 12:46:46;;;;;;;2.13;1.10;;;26.20;53.10;;;;;;5087429;28;20059;-78
2022/06/04 12:49:15;;;;;;;1.10;1.00;;;25.80;52.10;;;;;;5087282;28;20040;-79
2022/06/04 12:51:45;;;;;;;1.00;0.90;;;26.00;53.60;;;;;;5088088;28;20039;-78
2022/06/04 12:54:38;;;;;;;1.08;1.00;;;26.80;53.10;;;;;;5088346;28;20111;-79
2022/06/04 12:57:22;;;;;;;1.35;1.10;;;27.90;50.80;;;;;;5088550;28;20469;-79
2022/06/04 12:59:52;;;;;;;0.90;0.85;;;28.90;49.50;;;;;;5081437;28;20031;-80
2022/06/04 13:02:30;;;;;;;0.90;0.82;;;29.10;49.10;;;;;;5086348;28;20028;-79
2022/06/04 13:05:21;;;;;;;1.38;1.00;;;28.60;49.60;;;;;;5087354;28;20024;-80
2022/06/04 13:08:00;;;;;;;0.80;0.80;;;29.20;49.60;;;;;;5078948;28;20081;-79
2022/06/04 13:10:39;;;;;;;1.15;1.05;;;30.30;48.10;;;;;;5099365;28;20031;-80
2022/06/04 13:13:28;;;;;;;2.10;1.50;;;31.70;44.70;;;;;;5083051;28;20028;-80
2022/06/04 13:15:58;;;;;;;1.02;0.93;;;30.60;44.30;;;;;;5072726;28;20036;-80
2022/06/04 13:18:30;;;;;;;1.10;0.95;;;29.00;46.00;;;;;;5080031;28;20036;-78
2022/06/04 13:20:58;;;;;;;1.25;1.10;;;28.20;47.90;;;;;;5071692;28;20032;-79
2022/06/04 13:23:34;;;;;;;1.75;1.10;;;28.00;49.10;;;;;;5085318;28;20454;-78
2022/06/04 13:26:12;;;;;;;1.25;1.15;;;28.60;48.30;;;;;;5091634;28;20099;-80
2022/06/04 13:28:43;;;;;;;1.05;0.93;;;29.40;46.40;;;;;;5092112;28;20116;-79
2022/06/04 13:31:24;;;;;;;0.88;0.82;;;30.20;45.90;;;;;;5089983;28;20024;-79
2022/06/04 13:33:52;;;;;;;1.20;1.10;;;30.60;44.00;;;;;;5087684;28;20024;-79
2022/06/04 13:36:30;;;;;;;1.30;1.00;;;32.80;43.00;;;;;;5091498;28;20119;-80
2022/06/04 13:38:58;;;;;;;0.80;0.80;;;35.70;37.20;;;;;;5091656;28;20028;-80
2022/06/04 13:44:22;;;;;;;1.65;1.48;;;36.70;36.00;;;;;;5088622;28;20039;-82